createdAt,value
2023-11-01T00:00:36.509Z,990.4
2023-11-01T00:01:37.789Z,990.4
2023-11-01T00:02:39.016Z,990.4
2023-11-01T00:03:40.783Z,990.4
2023-11-01T00:04:42.257Z,990.4
2023-11-01T00:05:43.533Z,990.5
2023-11-01T00:06:44.910Z,990.5
2023-11-01T00:07:46.058Z,990.5
2023-11-01T00:08:47.236Z,990.5
2023-11-01T00:09:48.394Z,990.5
2023-11-01T00:10:49.559Z,990.6
2023-11-01T00:11:50.723Z,990.6
2023-11-01T00:12:51.892Z,990.5
2023-11-01T00:13:53.062Z,990.5
2023-11-01T00:14:54.229Z,990.5
2023-11-01T00:15:55.544Z,990.5
2023-11-01T00:16:57.048Z,990.6
2023-11-01T00:17:58.314Z,990.5
2023-11-01T00:18:59.567Z,990.5
2023-11-01T00:20:00.748Z,990.5
2023-11-01T00:21:01.904Z,990.5
2023-11-01T00:22:03.082Z,990.4
2023-11-01T00:23:04.309Z,990.4
2023-11-01T00:24:05.584Z,990.4
2023-11-01T00:25:06.723Z,990.4
2023-11-01T00:26:07.976Z,990.4
2023-11-01T00:27:09.137Z,990.3
2023-11-01T00:28:10.300Z,990.4
2023-11-01T00:29:11.495Z,990.4
2023-11-01T00:30:12.646Z,990.4
2023-11-01T00:31:13.813Z,990.4
2023-11-01T00:32:15.161Z,990.3
2023-11-01T00:33:16.437Z,990.3
2023-11-01T00:34:17.710Z,990.4
2023-11-01T00:35:18.989Z,990.4
2023-11-01T00:36:20.225Z,990.4
2023-11-01T00:37:21.403Z,990.4
2023-11-01T00:38:22.768Z,990.5
2023-11-01T00:39:23.954Z,990.5
2023-11-01T00:40:25.122Z,990.5
2023-11-01T00:41:26.367Z,990.6
2023-11-01T00:42:27.507Z,990.6
2023-11-01T00:43:28.767Z,990.6
2023-11-01T00:44:30.008Z,990.6
2023-11-01T00:45:31.219Z,990.6
2023-11-01T00:46:32.407Z,990.6
2023-11-01T00:47:33.702Z,990.6
2023-11-01T00:48:34.986Z,990.6
2023-11-01T00:49:36.185Z,990.6
2023-11-01T00:50:37.358Z,990.6
2023-11-01T00:51:38.539Z,990.6
2023-11-01T00:52:39.721Z,990.6
2023-11-01T00:53:40.959Z,990.6
2023-11-01T00:54:42.140Z,990.6
2023-11-01T00:55:43.303Z,990.5
2023-11-01T00:56:44.499Z,990.5
2023-11-01T00:57:45.666Z,990.5
2023-11-01T00:58:46.853Z,990.5
2023-11-01T00:59:48.048Z,990.4
2023-11-01T01:00:49.339Z,990.4
2023-11-01T01:01:50.543Z,990.4
2023-11-01T01:02:51.997Z,990.4
2023-11-01T01:03:53.601Z,990.4
2023-11-01T01:04:54.900Z,990.4
2023-11-01T01:05:56.038Z,990.4
2023-11-01T01:06:57.221Z,990.4
2023-11-01T01:07:58.418Z,990.4
2023-11-01T01:08:59.585Z,990.4
2023-11-01T01:10:00.760Z,990.4
2023-11-01T01:11:01.913Z,990.4
2023-11-01T01:12:03.081Z,990.4
2023-11-01T01:13:04.245Z,990.4
2023-11-01T01:14:05.414Z,990.4
2023-11-01T01:15:06.582Z,990.4
2023-11-01T01:16:07.826Z,990.3
2023-11-01T01:17:09.030Z,990.3
2023-11-01T01:18:10.260Z,990.3
2023-11-01T01:19:11.564Z,990.3
2023-11-01T01:20:12.789Z,990.3
2023-11-01T01:21:13.951Z,990.3
2023-11-01T01:22:15.122Z,990.2
2023-11-01T01:23:16.337Z,990.2
2023-11-01T01:24:17.631Z,990.2
2023-11-01T01:25:18.942Z,990.2
2023-11-01T01:26:20.205Z,990.3
2023-11-01T01:27:21.425Z,990.3
2023-11-01T01:28:22.595Z,990.2
2023-11-01T01:29:23.846Z,990.2
2023-11-01T01:30:25.063Z,990.2
2023-11-01T01:31:26.248Z,990.2
2023-11-01T01:32:27.506Z,990.2
2023-11-01T01:33:28.669Z,990.2
2023-11-01T01:34:29.864Z,990.2
2023-11-01T01:35:31.140Z,990.2
2023-11-01T01:36:32.388Z,990.2
2023-11-01T01:37:33.560Z,990.2
2023-11-01T01:38:34.783Z,990.2
2023-11-01T01:39:36.050Z,990.3
2023-11-01T01:40:37.254Z,990.3
2023-11-01T01:41:38.478Z,990.3
2023-11-01T01:42:39.619Z,990.3
2023-11-01T01:43:41.056Z,990.3
2023-11-01T01:44:42.453Z,990.3
2023-11-01T01:45:43.713Z,990.3
2023-11-01T01:46:44.939Z,990.3
2023-11-01T01:47:46.159Z,990.3
2023-11-01T01:48:47.511Z,990.3
2023-11-01T01:49:48.681Z,990.3
2023-11-01T01:50:49.921Z,990.3
2023-11-01T01:51:51.050Z,990.3
2023-11-01T01:52:52.233Z,990.3
2023-11-01T01:53:53.449Z,990.3
2023-11-01T01:54:54.699Z,990.3
2023-11-01T01:55:55.862Z,990.3
2023-11-01T01:56:57.044Z,990.3
2023-11-01T01:57:58.199Z,990.3
2023-11-01T01:58:59.367Z,990.3
2023-11-01T02:00:00.589Z,990.2
2023-11-01T02:01:01.788Z,990.2
2023-11-01T02:02:02.993Z,990.2
2023-11-01T02:03:04.497Z,990.2
2023-11-01T02:04:05.751Z,990.2
2023-11-01T02:05:06.926Z,990.3
2023-11-01T02:06:08.113Z,990.3
2023-11-01T02:07:09.253Z,990.3
2023-11-01T02:08:10.435Z,990.3
2023-11-01T02:09:11.637Z,990.3
2023-11-01T02:10:12.807Z,990.3
2023-11-01T02:11:14.013Z,990.3
2023-11-01T02:12:15.205Z,990.3
2023-11-01T02:13:16.427Z,990.3
2023-11-01T02:14:17.619Z,990.3
2023-11-01T02:15:18.800Z,990.3
2023-11-01T02:16:20.031Z,990.3
2023-11-01T02:17:21.192Z,990.3
2023-11-01T02:18:22.386Z,990.3
2023-11-01T02:19:23.587Z,990.3
2023-11-01T02:20:24.830Z,990.3
2023-11-01T02:21:29.013Z,990.3
2023-11-01T02:22:33.195Z,990.3
2023-11-01T02:23:34.638Z,990.3
2023-11-01T02:24:45.558Z,990.3
2023-11-01T02:25:46.687Z,990.2
2023-11-01T02:26:47.858Z,990.2
2023-11-01T02:27:49.026Z,990.2
2023-11-01T02:28:50.188Z,990.2
2023-11-01T02:29:51.369Z,990.2
2023-11-01T02:30:52.534Z,990.2
2023-11-01T02:31:53.710Z,990.2
2023-11-01T02:32:54.932Z,990.2
2023-11-01T02:33:56.119Z,990.2
2023-11-01T02:34:57.287Z,990.2
2023-11-01T02:35:58.461Z,990.2
2023-11-01T02:36:59.647Z,990.2
2023-11-01T02:38:00.784Z,990.2
2023-11-01T02:39:01.948Z,990.2
2023-11-01T02:40:03.119Z,990.2
2023-11-01T02:41:04.301Z,990.2
2023-11-01T02:42:05.458Z,990.2
2023-11-01T02:43:06.629Z,990.1
2023-11-01T02:44:07.796Z,990.1
2023-11-01T02:45:08.960Z,990.1
2023-11-01T02:46:10.188Z,990.1
2023-11-01T02:47:11.470Z,990.1
2023-11-01T02:48:12.719Z,990.1
2023-11-01T02:49:13.876Z,990.1
2023-11-01T02:50:15.317Z,990.1
2023-11-01T02:51:16.618Z,990.1
2023-11-01T02:52:17.809Z,990.1
2023-11-01T02:53:18.986Z,990.1
2023-11-01T02:54:20.270Z,990.1
2023-11-01T02:55:21.431Z,990.1
2023-11-01T02:56:22.650Z,990.1
2023-11-01T02:57:23.801Z,990.1
2023-11-01T02:58:25.077Z,990.1
2023-11-01T02:59:26.413Z,990.1
2023-11-01T03:00:27.577Z,990.1
2023-11-01T03:01:28.767Z,990.1
2023-11-01T03:02:30.018Z,990.1
2023-11-01T03:03:31.417Z,990
2023-11-01T03:04:32.560Z,990
2023-11-01T03:05:33.763Z,990
2023-11-01T03:06:35.241Z,990
2023-11-01T03:07:36.437Z,990
2023-11-01T03:08:37.593Z,990
2023-11-01T03:09:38.778Z,989.9
2023-11-01T03:10:39.943Z,989.9
2023-11-01T03:11:41.213Z,989.9
2023-11-01T03:12:42.393Z,989.9
2023-11-01T03:13:43.562Z,989.9
2023-11-01T03:14:44.719Z,989.9
2023-11-01T03:15:45.892Z,989.9
2023-11-01T03:16:47.047Z,990
2023-11-01T03:17:48.351Z,989.9
2023-11-01T03:18:49.820Z,989.9
2023-11-01T03:19:50.984Z,989.9
2023-11-01T03:20:52.159Z,989.9
2023-11-01T03:21:56.836Z,989.9
2023-11-01T03:22:58.094Z,990
2023-11-01T03:23:59.235Z,989.9
2023-11-01T03:25:00.398Z,989.9
2023-11-01T03:26:01.590Z,989.9
2023-11-01T03:27:02.730Z,989.9
2023-11-01T03:28:03.905Z,989.9
2023-11-01T03:29:05.189Z,989.9
2023-11-01T03:30:06.369Z,989.9
2023-11-01T03:31:07.586Z,989.9
2023-11-01T03:32:08.803Z,989.9
2023-11-01T03:33:10.081Z,989.9
2023-11-01T03:34:11.348Z,989.9
2023-11-01T03:35:12.601Z,989.9
2023-11-01T03:36:13.868Z,989.9
2023-11-01T03:37:15.035Z,989.9
2023-11-01T03:38:16.314Z,989.9
2023-11-01T03:39:20.486Z,989.9
2023-11-01T03:40:21.652Z,989.9
2023-11-01T03:41:22.816Z,989.9
2023-11-01T03:42:24.001Z,989.9
2023-11-01T03:43:25.167Z,989.9
2023-11-01T03:44:26.354Z,989.9
2023-11-01T03:45:27.513Z,989.9
2023-11-01T03:46:28.780Z,989.9
2023-11-01T03:47:30.096Z,989.9
2023-11-01T03:48:31.568Z,989.9
2023-11-01T03:49:32.793Z,989.9
2023-11-01T03:50:34.009Z,990
2023-11-01T03:51:35.244Z,990
2023-11-01T03:52:36.397Z,990
2023-11-01T03:53:37.750Z,990
2023-11-01T03:54:39.078Z,990
2023-11-01T03:55:40.264Z,990
2023-11-01T03:56:41.454Z,990
2023-11-01T03:57:42.690Z,990
2023-11-01T03:58:43.923Z,990
2023-11-01T03:59:45.132Z,990
2023-11-01T04:00:46.342Z,989.9
2023-11-01T04:01:47.552Z,989.9
2023-11-01T04:02:48.928Z,989.9
2023-11-01T04:03:50.524Z,989.9
2023-11-01T04:04:51.789Z,989.9
2023-11-01T04:05:53.029Z,989.9
2023-11-01T04:06:54.259Z,989.9
2023-11-01T04:07:55.450Z,989.9
2023-11-01T04:08:56.617Z,989.9
2023-11-01T04:09:57.762Z,989.9
2023-11-01T04:10:58.933Z,989.8
2023-11-01T04:12:00.103Z,989.9
2023-11-01T04:13:01.259Z,989.9
2023-11-01T04:14:02.424Z,989.9
2023-11-01T04:15:03.587Z,989.9
2023-11-01T04:16:04.915Z,989.8
2023-11-01T04:17:06.095Z,989.8
2023-11-01T04:18:07.396Z,989.9
2023-11-01T04:19:08.723Z,989.9
2023-11-01T04:20:10.006Z,989.9
2023-11-01T04:21:11.167Z,989.9
2023-11-01T04:22:12.325Z,989.9
2023-11-01T04:23:13.560Z,989.9
2023-11-01T04:24:14.744Z,989.9
2023-11-01T04:25:15.904Z,989.9
2023-11-01T04:26:17.081Z,989.9
2023-11-01T04:27:18.292Z,989.9
2023-11-01T04:28:19.498Z,989.9
2023-11-01T04:29:20.680Z,989.9
2023-11-01T04:30:21.850Z,989.9
2023-11-01T04:31:23.044Z,989.9
2023-11-01T04:32:24.219Z,989.9
2023-11-01T04:33:25.540Z,989.9
2023-11-01T04:34:26.917Z,989.9
2023-11-01T04:35:30.799Z,989.9
2023-11-01T04:36:32.029Z,989.9
2023-11-01T04:37:33.170Z,989.9
2023-11-01T04:38:34.530Z,989.9
2023-11-01T04:39:35.732Z,989.9
2023-11-01T04:40:37.078Z,989.9
2023-11-01T04:41:38.329Z,989.9
2023-11-01T04:42:39.594Z,989.9
2023-11-01T04:43:41.015Z,990
2023-11-01T04:44:42.309Z,990
2023-11-01T04:45:43.524Z,990
2023-11-01T04:46:44.719Z,990
2023-11-01T04:47:46.559Z,989.9
2023-11-01T04:48:48.330Z,989.9
2023-11-01T04:49:49.495Z,989.9
2023-11-01T04:50:51.971Z,989.9
2023-11-01T04:51:54.004Z,989.9
2023-11-01T04:52:55.180Z,989.9
2023-11-01T04:53:56.491Z,989.9
2023-11-01T04:54:57.790Z,989.9
2023-11-01T04:55:58.940Z,989.9
2023-11-01T04:57:00.112Z,989.9
2023-11-01T04:58:04.120Z,989.9
2023-11-01T04:59:05.272Z,989.9
2023-11-01T05:00:06.436Z,989.8
2023-11-01T05:01:08.007Z,989.8
2023-11-01T05:02:12.125Z,989.9
2023-11-01T05:03:13.486Z,989.8
2023-11-01T05:04:14.831Z,989.8
2023-11-01T05:05:16.073Z,989.8
2023-11-01T05:06:17.262Z,989.8
2023-11-01T05:07:18.419Z,989.8
2023-11-01T05:08:19.768Z,989.8
2023-11-01T05:09:20.982Z,989.8
2023-11-01T05:10:22.716Z,989.8
2023-11-01T05:11:24.026Z,989.8
2023-11-01T05:12:27.596Z,989.8
2023-11-01T05:13:28.780Z,989.7
2023-11-01T05:14:29.967Z,989.7
2023-11-01T05:15:31.137Z,989.7
2023-11-01T05:16:32.459Z,989.8
2023-11-01T05:17:33.755Z,989.8
2023-11-01T05:18:35.070Z,989.8
2023-11-01T05:19:36.295Z,989.7
2023-11-01T05:20:37.482Z,989.8
2023-11-01T05:21:38.661Z,989.8
2023-11-01T05:22:39.813Z,989.7
2023-11-01T05:23:41.084Z,989.8
2023-11-01T05:24:42.354Z,989.7
2023-11-01T05:25:43.576Z,989.7
2023-11-01T05:26:44.766Z,989.8
2023-11-01T05:27:46.077Z,989.8
2023-11-01T05:28:47.257Z,989.7
2023-11-01T05:29:48.585Z,989.7
2023-11-01T05:30:49.899Z,989.7
2023-11-01T05:31:51.163Z,989.7
2023-11-01T05:32:52.503Z,989.7
2023-11-01T05:33:53.687Z,989.7
2023-11-01T05:34:54.917Z,989.7
2023-11-01T05:35:58.696Z,989.7
2023-11-01T05:36:59.905Z,989.7
2023-11-01T05:38:06.751Z,989.7
2023-11-01T05:39:07.935Z,989.7
2023-11-01T05:40:09.082Z,989.7
2023-11-01T05:41:10.294Z,989.7
2023-11-01T05:42:11.585Z,989.7
2023-11-01T05:43:12.749Z,989.7
2023-11-01T05:44:13.911Z,989.7
2023-11-01T05:45:15.079Z,989.7
2023-11-01T05:46:16.263Z,989.7
2023-11-01T05:47:17.468Z,989.7
2023-11-01T05:48:18.656Z,989.6
2023-11-01T05:49:19.857Z,989.7
2023-11-01T05:50:23.378Z,989.6
2023-11-01T05:51:24.549Z,989.6
2023-11-01T05:52:25.716Z,989.6
2023-11-01T05:53:26.891Z,989.6
2023-11-01T05:54:28.052Z,989.6
2023-11-01T05:55:48.944Z,989.6
2023-11-01T05:57:10.664Z,989.6
2023-11-01T05:58:11.808Z,989.6
2023-11-01T05:59:12.982Z,989.6
2023-11-01T06:00:14.183Z,989.6
2023-11-01T06:01:15.378Z,989.6
2023-11-01T06:02:16.732Z,989.6
2023-11-01T06:03:18.222Z,989.6
2023-11-01T06:04:19.691Z,989.6
2023-11-01T06:05:20.945Z,989.6
2023-11-01T06:06:22.197Z,989.6
2023-11-01T06:07:23.364Z,989.6
2023-11-01T06:08:24.537Z,989.6
2023-11-01T06:09:25.700Z,989.6
2023-11-01T06:10:26.910Z,989.6
2023-11-01T06:11:28.094Z,989.6
2023-11-01T06:12:29.278Z,989.6
2023-11-01T06:13:30.431Z,989.6
2023-11-01T06:14:31.610Z,989.6
2023-11-01T06:15:32.886Z,989.6
2023-11-01T06:16:34.127Z,989.7
2023-11-01T06:17:35.373Z,989.6
2023-11-01T06:18:36.547Z,989.7
2023-11-01T06:19:37.717Z,989.6
2023-11-01T06:20:38.962Z,989.7
2023-11-01T06:21:40.164Z,989.7
2023-11-01T06:22:41.355Z,989.7
2023-11-01T06:23:42.540Z,989.7
2023-11-01T06:24:43.689Z,989.7
2023-11-01T06:25:44.902Z,989.7
2023-11-01T06:26:46.198Z,989.7
2023-11-01T06:27:47.379Z,989.7
2023-11-01T06:28:48.517Z,989.7
2023-11-01T06:29:49.722Z,989.7
2023-11-01T06:30:50.875Z,989.7
2023-11-01T06:31:52.049Z,989.7
2023-11-01T06:32:56.323Z,989.7
2023-11-01T06:34:06.796Z,989.7
2023-11-01T06:35:08.001Z,989.7
2023-11-01T06:36:11.827Z,989.7
2023-11-01T06:37:12.994Z,989.7
2023-11-01T06:38:14.165Z,989.7
2023-11-01T06:39:15.325Z,989.6
2023-11-01T06:40:16.504Z,989.6
2023-11-01T06:41:17.797Z,989.6
2023-11-01T06:42:18.988Z,989.5
2023-11-01T06:43:20.305Z,989.6
2023-11-01T06:44:21.569Z,989.6
2023-11-01T06:45:22.805Z,989.6
2023-11-01T06:46:24.002Z,989.6
2023-11-01T06:47:25.317Z,989.6
2023-11-01T06:48:26.794Z,989.6
2023-11-01T06:49:32.379Z,989.6
2023-11-01T06:50:33.845Z,989.6
2023-11-01T06:51:35.111Z,989.6
2023-11-01T06:52:36.311Z,989.6
2023-11-01T06:53:37.677Z,989.6
2023-11-01T06:54:38.882Z,989.6
2023-11-01T06:55:40.099Z,989.6
2023-11-01T06:56:41.365Z,989.6
2023-11-01T07:10:07.234Z,989.6
2023-11-01T07:12:44.026Z,989.7
2023-11-01T07:13:52.813Z,989.7
2023-11-01T07:18:30.818Z,989.7
2023-11-01T07:19:36.832Z,989.6
2023-11-01T07:20:54.761Z,989.6
2023-11-01T07:22:11.740Z,989.6
2023-11-01T07:23:36.668Z,989.6
2023-11-01T07:24:50.084Z,989.6
2023-11-01T07:26:14.976Z,989.6
2023-11-01T07:27:23.706Z,989.6
2023-11-01T07:28:29.802Z,989.6
2023-11-01T07:29:39.793Z,989.6
2023-11-01T07:31:04.677Z,989.6
2023-11-01T07:32:16.495Z,989.6
2023-11-01T07:36:04.205Z,989.6
2023-11-01T07:38:24.363Z,989.6
2023-11-01T07:39:25.559Z,989.5
2023-11-01T07:40:40.858Z,989.5
2023-11-01T07:41:48.061Z,989.5
2023-11-01T07:42:59.257Z,989.5
2023-11-01T07:44:08.234Z,989.5
2023-11-01T07:45:30.597Z,989.4
2023-11-01T07:46:36.599Z,989.4
2023-11-01T07:47:48.244Z,989.4
2023-11-01T07:48:54.304Z,989.4
2023-11-01T07:49:55.487Z,989.4
2023-11-01T07:51:02.212Z,989.4
2023-11-01T07:52:29.277Z,989.4
2023-11-01T07:53:30.443Z,989.4
2023-11-01T07:54:31.631Z,989.4
2023-11-01T07:55:41.859Z,989.4
2023-11-01T07:56:43.050Z,989.4
2023-11-01T07:57:44.278Z,989.4
2023-11-01T07:58:52.955Z,989.4
2023-11-01T07:59:56.792Z,989.4
2023-11-01T08:00:57.968Z,989.4
2023-11-01T08:02:04.669Z,989.4
2023-11-01T08:03:06.004Z,989.3
2023-11-01T08:04:07.889Z,989.3
2023-11-01T08:05:09.514Z,989.3
2023-11-01T08:06:10.757Z,989.3
2023-11-01T08:07:12.532Z,989.3
2023-11-01T08:08:16.894Z,989.3
2023-11-01T08:09:18.036Z,989.3
2023-11-01T08:10:19.199Z,989.3
2023-11-01T08:11:20.574Z,989.3
2023-11-01T08:12:21.732Z,989.3
2023-11-01T08:13:22.931Z,989.3
2023-11-01T08:14:24.082Z,989.3
2023-11-01T08:15:28.415Z,989.3
2023-11-01T08:16:29.913Z,989.3
2023-11-01T08:17:31.209Z,989.2
2023-11-01T08:18:32.428Z,989.2
2023-11-01T08:19:33.596Z,989.2
2023-11-01T08:20:37.378Z,989.2
2023-11-01T08:21:38.589Z,989.2
2023-11-01T08:22:39.758Z,989.2
2023-11-01T08:23:43.146Z,989.2
2023-11-01T08:24:44.373Z,989.2
2023-11-01T08:25:45.538Z,989.3
2023-11-01T08:26:46.762Z,989.2
2023-11-01T08:27:50.949Z,989.2
2023-11-01T08:29:04.205Z,989.2
2023-11-01T08:30:12.976Z,989.2
2023-11-01T08:31:31.911Z,989.1
2023-11-01T08:34:09.958Z,989.1
2023-11-01T08:35:16.088Z,989.1
2023-11-01T08:42:28.999Z,989.1
2023-11-01T08:43:39.907Z,989.1
2023-11-01T08:46:44.205Z,989
2023-11-01T08:47:45.761Z,989
2023-11-01T08:50:06.543Z,989
2023-11-01T08:51:12.518Z,989
2023-11-01T08:52:13.678Z,989
2023-11-01T09:07:59.414Z,988.9
2023-11-01T09:09:09.385Z,988.9
2023-11-01T09:10:10.773Z,988.9
2023-11-01T09:11:11.945Z,988.9
2023-11-01T09:12:19.148Z,988.9
2023-11-01T09:13:20.390Z,988.9
2023-11-01T09:14:26.363Z,988.9
2023-11-01T09:16:45.533Z,988.9
2023-11-01T09:20:09.562Z,988.9
2023-11-01T09:21:17.734Z,988.9
2023-11-01T09:22:39.927Z,988.9
2023-11-01T09:23:53.689Z,988.9
2023-11-01T09:25:08.522Z,988.9
2023-11-01T09:26:21.199Z,988.9
2023-11-01T09:27:33.962Z,988.9
2023-11-01T09:28:44.801Z,988.9
2023-11-01T09:29:56.259Z,988.9
2023-11-01T09:31:39.209Z,989
2023-11-01T09:32:47.876Z,989
2023-11-01T09:33:52.140Z,988.9
2023-11-01T09:35:39.368Z,988.9
2023-11-01T09:36:49.774Z,988.9
2023-11-01T09:37:50.916Z,988.9
2023-11-01T09:38:55.110Z,988.9
2023-11-01T09:41:10.258Z,988.9
2023-11-01T09:42:17.208Z,988.9
2023-11-01T09:44:32.496Z,988.9
2023-11-01T09:45:36.723Z,988.9
2023-11-01T09:46:40.325Z,988.9
2023-11-01T09:47:41.756Z,989
2023-11-01T09:48:49.100Z,989
2023-11-01T09:49:50.326Z,989
2023-11-01T09:51:57.760Z,989
2023-11-01T09:53:04.665Z,989
2023-11-01T09:54:10.682Z,989
2023-11-01T09:55:19.490Z,989
2023-11-01T09:56:23.323Z,989
2023-11-01T09:57:24.569Z,989
2023-11-01T09:58:26.000Z,989
2023-11-01T09:59:27.256Z,989
2023-11-01T10:00:28.492Z,988.9
2023-11-01T10:01:29.709Z,988.9
2023-11-01T10:02:30.965Z,988.9
2023-11-01T10:03:32.533Z,988.9
2023-11-01T10:04:33.874Z,988.9
2023-11-01T10:06:40.881Z,988.9
2023-11-01T10:08:59.418Z,988.8
2023-11-01T10:10:02.898Z,988.8
2023-11-01T10:11:09.589Z,988.8
2023-11-01T10:12:12.941Z,988.8
2023-11-01T10:13:19.246Z,988.8
2023-11-01T10:14:40.443Z,988.8
2023-11-01T10:16:00.295Z,988.8
2023-11-01T10:18:19.262Z,988.8
2023-11-01T10:19:20.614Z,988.8
2023-11-01T10:20:21.821Z,988.8
2023-11-01T10:21:22.961Z,988.7
2023-11-01T10:22:24.144Z,988.7
2023-11-01T10:23:27.893Z,988.7
2023-11-01T10:24:29.094Z,988.7
2023-11-01T10:25:30.312Z,988.7
2023-11-01T10:27:43.380Z,988.6
2023-11-01T10:29:01.931Z,988.6
2023-11-01T10:30:09.210Z,988.6
2023-11-01T10:31:10.634Z,988.6
2023-11-01T10:32:19.583Z,988.6
2023-11-01T10:33:26.814Z,988.6
2023-11-01T10:34:34.145Z,988.6
2023-11-01T10:35:45.675Z,988.5
2023-11-01T10:36:54.088Z,988.5
2023-11-01T10:38:06.898Z,988.5
2023-11-01T10:39:13.623Z,988.5
2023-11-01T10:40:14.783Z,988.6
2023-11-01T10:41:23.762Z,988.5
2023-11-01T10:42:38.173Z,988.5
2023-11-01T10:44:13.241Z,988.5
2023-11-01T10:45:30.070Z,988.4
2023-11-01T10:46:43.154Z,988.4
2023-11-01T10:49:10.219Z,988.4
2023-11-01T10:50:18.382Z,988.4
2023-11-01T10:51:25.365Z,988.4
2023-11-01T10:52:35.546Z,988.4
2023-11-01T10:53:48.694Z,988.4
2023-11-01T10:55:03.913Z,988.4
2023-11-01T10:56:19.686Z,988.3
2023-11-01T10:57:44.774Z,988.3
2023-11-01T10:58:50.910Z,988.3
2023-11-01T10:59:56.929Z,988.3
2023-11-01T11:01:01.108Z,988.3
2023-11-01T11:02:12.140Z,988.3
2023-11-01T11:05:14.546Z,988.3
2023-11-01T11:06:25.447Z,988.3
2023-11-01T11:07:29.666Z,988.3
2023-11-01T11:08:30.970Z,988.3
2023-11-01T11:09:40.136Z,988.3
2023-11-01T11:11:06.415Z,988.3
2023-11-01T11:12:16.167Z,988.2
2023-11-01T11:13:27.391Z,988.2
2023-11-01T11:14:32.508Z,988.2
2023-11-01T11:15:59.575Z,988.1
2023-11-01T11:18:20.810Z,988.1
2023-11-01T11:19:27.062Z,988.1
2023-11-01T11:20:40.314Z,988.1
2023-11-01T11:21:57.832Z,988.1
2023-11-01T11:23:14.076Z,988.1
2023-11-01T11:24:20.801Z,988.1
2023-11-01T11:25:33.795Z,988.1
2023-11-01T11:26:47.995Z,988.1
2023-11-01T11:28:04.936Z,988.1
2023-11-01T11:31:47.532Z,988.1
2023-11-01T11:33:08.335Z,988
2023-11-01T11:34:27.536Z,988.1
2023-11-01T11:35:57.023Z,988
2023-11-01T11:40:43.704Z,988
2023-11-01T11:41:45.596Z,988
2023-11-01T11:42:53.906Z,988
2023-11-01T11:44:02.650Z,988
2023-11-01T11:45:11.619Z,988
2023-11-01T11:46:26.737Z,988
2023-11-01T11:47:40.582Z,988
2023-11-01T11:48:56.508Z,988
2023-11-01T11:50:19.451Z,988
2023-11-01T11:51:20.745Z,988
2023-11-01T11:52:27.621Z,988
2023-11-01T11:53:32.039Z,988
2023-11-01T11:56:49.989Z,988
2023-11-01T11:57:53.853Z,988
2023-11-01T11:58:57.657Z,988
2023-11-01T12:00:11.862Z,988
2023-11-01T12:01:49.377Z,988
2023-11-01T12:03:17.355Z,988
2023-11-01T12:04:21.390Z,988
2023-11-01T12:05:37.130Z,988
2023-11-01T12:06:38.619Z,988
2023-11-01T12:08:21.875Z,988
2023-11-01T12:09:23.169Z,988
2023-11-01T12:11:38.922Z,987.9
2023-11-01T12:12:57.770Z,987.9
2023-11-01T12:15:37.663Z,987.8
2023-11-01T12:16:41.913Z,987.8
2023-11-01T12:18:32.503Z,987.8
2023-11-01T12:19:33.994Z,987.8
2023-11-01T12:20:46.169Z,987.8
2023-11-01T12:23:22.739Z,987.7
2023-11-01T12:24:45.263Z,987.7
2023-11-01T12:25:49.238Z,987.7
2023-11-01T12:27:11.448Z,987.7
2023-11-01T12:28:22.632Z,987.7
2023-11-01T12:29:27.034Z,987.7
2023-11-01T12:30:53.826Z,987.7
2023-11-01T12:32:15.171Z,987.6
2023-11-01T12:33:27.428Z,987.6
2023-11-01T12:34:34.634Z,987.6
2023-11-01T12:35:44.345Z,987.6
2023-11-01T12:36:53.043Z,987.6
2023-11-01T12:37:56.684Z,987.6
2023-11-01T12:39:03.043Z,987.6
2023-11-01T12:40:09.452Z,987.6
2023-11-01T12:41:13.632Z,987.5
2023-11-01T12:42:20.537Z,987.6
2023-11-01T12:43:26.608Z,987.6
2023-11-01T12:44:28.084Z,987.6
2023-11-01T12:45:44.792Z,987.5
2023-11-01T12:47:16.348Z,987.5
2023-11-01T12:48:24.134Z,987.5
2023-11-01T12:52:11.818Z,987.6
2023-11-01T12:53:27.134Z,987.6
2023-11-01T12:56:06.385Z,987.6
2023-11-01T12:57:23.026Z,987.6
2023-11-01T12:59:51.085Z,987.6
2023-11-01T13:01:14.472Z,987.6
2023-11-01T13:06:44.892Z,987.5
2023-11-01T13:08:59.115Z,987.5
2023-11-01T13:10:08.005Z,987.5
2023-11-01T13:12:17.252Z,987.5
2023-11-01T13:14:11.686Z,987.4
2023-11-01T13:15:36.490Z,987.4
2023-11-01T13:16:54.304Z,987.4
2023-11-01T13:19:32.036Z,987.4
2023-11-01T13:21:50.329Z,987.3
2023-11-01T13:24:09.421Z,987.3
2023-11-01T13:25:10.761Z,987.2
2023-11-01T13:26:22.189Z,987.2
2023-11-01T13:27:50.208Z,987.2
2023-11-01T13:29:03.199Z,987.2
2023-11-01T13:30:10.118Z,987.2
2023-11-01T13:31:31.563Z,987.1
2023-11-01T13:32:49.100Z,987.1
2023-11-01T13:33:53.350Z,987.1
2023-11-01T13:34:54.538Z,987.1
2023-11-01T13:36:01.535Z,987
2023-11-01T13:37:13.909Z,987
2023-11-01T13:38:18.009Z,987
2023-11-01T13:39:39.610Z,987
2023-11-01T13:40:45.130Z,987
2023-11-01T13:42:15.501Z,986.9
2023-11-01T13:44:02.661Z,986.9
2023-11-01T13:46:14.632Z,986.8
2023-11-01T13:47:23.066Z,986.8
2023-11-01T13:48:54.772Z,986.8
2023-11-01T13:50:03.526Z,986.8
2023-11-01T13:51:04.929Z,986.8
2023-11-01T13:52:46.619Z,986.8
2023-11-01T13:53:52.918Z,986.8
2023-11-01T13:54:54.247Z,986.8
2023-11-01T13:56:14.854Z,986.7
2023-11-01T13:57:24.686Z,986.7
2023-11-01T13:58:25.855Z,986.7
2023-11-01T14:00:44.046Z,986.7
2023-11-01T14:03:22.756Z,986.7
2023-11-01T14:04:34.651Z,986.6
2023-11-01T14:05:39.230Z,986.6
2023-11-01T14:06:56.814Z,986.6
2023-11-01T14:08:00.212Z,986.6
2023-11-01T14:09:27.586Z,986.6
2023-11-01T14:11:50.642Z,986.5
2023-11-01T14:51:27.112Z,986.5
2023-11-01T14:52:33.797Z,986.2
2023-11-01T14:53:37.503Z,986.2
2023-11-01T14:54:49.445Z,986.1
2023-11-01T14:57:14.798Z,986.2
2023-11-01T14:58:21.757Z,986.1
2023-11-01T14:59:28.643Z,986.1
2023-11-01T15:00:37.175Z,986.2
2023-11-01T15:01:50.994Z,986.2
2023-11-01T15:02:56.897Z,986.2
2023-11-01T15:03:58.334Z,986.1
2023-11-01T15:05:07.629Z,986.1
2023-11-01T15:06:08.965Z,986.1
2023-11-01T15:07:10.368Z,986.1
2023-11-01T15:08:11.578Z,986.1
2023-11-01T15:09:21.713Z,986.2
2023-11-01T15:10:22.847Z,986.1
2023-11-01T15:11:24.031Z,986.1
2023-11-01T15:12:25.173Z,986.1
2023-11-01T15:13:26.342Z,986.1
2023-11-01T15:14:27.508Z,986.1
2023-11-01T15:15:28.675Z,986.1
2023-11-01T15:16:29.886Z,986.1
2023-11-01T15:17:31.079Z,986.1
2023-11-01T15:18:32.493Z,986.1
2023-11-01T15:19:33.814Z,986.1
2023-11-01T15:20:35.012Z,986.1
2023-11-01T15:21:36.433Z,986.1
2023-11-01T15:22:38.365Z,986.1
2023-11-01T15:23:42.521Z,986.1
2023-11-01T15:24:43.700Z,986.1
2023-11-01T15:25:44.866Z,986.1
2023-11-01T15:26:46.160Z,986.1
2023-11-01T15:27:47.485Z,986.1
2023-11-01T15:28:48.642Z,986.1
2023-11-01T15:29:49.884Z,986.2
2023-11-01T15:30:51.067Z,986.1
2023-11-01T15:31:52.284Z,986.1
2023-11-01T15:32:53.682Z,986.2
2023-11-01T15:33:59.866Z,986.1
2023-11-01T15:35:01.235Z,986.1
2023-11-01T15:36:04.929Z,986.1
2023-11-01T15:37:13.407Z,986.1
2023-11-01T15:38:22.417Z,986.1
2023-11-01T15:39:46.713Z,986.1
2023-11-01T15:40:47.946Z,986.2
2023-11-01T15:42:19.426Z,986.2
2023-11-01T15:43:20.774Z,986.2
2023-11-01T15:44:24.992Z,986.2
2023-11-01T15:45:33.916Z,986.2
2023-11-01T15:46:41.195Z,986.2
2023-11-01T15:47:51.660Z,986.2
2023-11-01T15:48:52.995Z,986.2
2023-11-01T15:50:16.527Z,986.2
2023-11-01T15:52:25.594Z,986.1
2023-11-01T15:53:32.046Z,986.1
2023-11-01T15:54:57.350Z,986.1
2023-11-01T15:56:19.591Z,986.1
2023-11-01T15:57:30.981Z,986.1
2023-11-01T15:58:43.687Z,986
2023-11-01T15:59:51.077Z,986
2023-11-01T16:00:55.176Z,986.1
2023-11-01T16:02:06.537Z,986.1
2023-11-01T16:03:08.127Z,986
2023-11-01T16:04:12.781Z,986
2023-11-01T16:05:17.505Z,986
2023-11-01T16:06:31.145Z,986
2023-11-01T16:07:34.850Z,986
2023-11-01T16:08:45.178Z,986
2023-11-01T16:09:46.421Z,986
2023-11-01T16:10:47.569Z,986
2023-11-01T16:11:48.747Z,986
2023-11-01T16:12:49.921Z,986
2023-11-01T16:13:52.561Z,986
2023-11-01T16:14:53.755Z,986
2023-11-01T16:15:55.106Z,986
2023-11-01T16:16:56.328Z,986
2023-11-01T16:17:57.612Z,986
2023-11-01T16:18:58.994Z,986
2023-11-01T16:20:03.250Z,986
2023-11-01T16:21:04.723Z,986